Tiempo atmosférico en la estación meteorológica de Navasfrías, Salamanca (880 m.)



Fecha
DESCASC
Temp. máxima en grados centígrados (hora)
DESCASC
Temp. mínima en grados centígrados (hora)
DESCASC
Temp. media en grados centígrados
DESCASC
Racha de viento máxima en m/sg (hora)
DESCASC
Velocidad máxima media en intervalos de 10 minutos(hora)
DESCASC
Precipitaciones diarias en mm
DESCASC
Precipitaciones de 00:00 a 06:00 en mm
DESCASC
Precipitaciones de 06:00 a 12:00 en mm
DESCASC
Precipitaciones de 12:00 a 18:00 en mm
DESCASC
Precipitaciones de 18:00 a 24:00 en mm
DESCASC
31-03-2020 5.8 (19:40) -0.6 (07:50) 2.6 7.5 (22:20) 3.33 (21:50) 19.2 0 0 14.4 4.8
29-03-2020 15.6 (15:10) -1.7 (-00:0) 7 6.67 (16:20) 3.61 (15:40) 0 0 0 0 0
28-03-2020 12 (17:30) -3 (-00:0) 4.5 8.06 (14:50) 4.44 (14:50) 0 0 0 0 0
27-03-2020 9.5 (13:50) -1.3 (-00:0) 4.1 6.11 (15:40) 3.33 (17:10) 0 0 0 0 0
26-03-2020 15.6 (17:00) 3.2 (00:00) 9.4 8.89 (12:40) 4.17 (12:40) 0 0 0 0 0
25-03-2020 16.4 (15:20) 0.1 (00:00) 8.2 11.39 (20:30) 4.72 (20:30) 1.8 0 0 0 1.8
24-03-2020 13.4 (17:10) 0 (00:00) 6.7 5 (14:40) 2.5 (15:10) 0 0 0 0 0
23-03-2020 12.5 (15:10) -0.4 (00:00) 6 9.44 (17:20) 3.61 (17:20) 4.8 0 0 4.8 0
22-03-2020 12 (15:30) -1.1 (05:10) 5.4 5 (14:20) 2.5 (18:20) 0 0 0 0 0
21-03-2020 8.9 (19:10) 0.2 (00:00) 4.5 7.22 (11:10) 3.61 (01:00) 17.2 14.8 2.4 0 0
20-03-2020 11.2 (00:00) 7.5 (00:00) 9.3 11.67 (01:10) 4.72 (01:00) 31 0 12.6 5.2 13.2
19-03-2020 16.7 (14:30) 7.2 (00:00) 12 6.94 (23:40) 3.89 (23:40) 0 0 0 0 0
18-03-2020 17 (13:50) 0.4 (00:00) 8.7 7.5 (13:10) 3.89 (14:40) 0 0 0 0 0
17-03-2020 13.5 (15:10) -1.3 (-00:0) 6.1 8.89 (16:10) 4.44 (16:10) 0.4 0.4 0 0 0
16-03-2020 6.8 (12:20) 0.8 (00:00) 3.8 12.22 (12:30) 6.67 (12:30) 10.6 0 0 3.8 6.8
15-03-2020 16.1 (13:10) -0.1 (00:00) 8 11.67 (20:00) 5.56 (13:30) 0 0 0 0 0
14-03-2020 19.7 (17:00) -0.3 (00:00) 9.7 4.72 (13:40) 2.5 (14:00) 0 0 0 0 0
13-03-2020 14.9 (16:30) 3.3 (23:59) 9.1 6.11 (15:20) 3.33 (17:10) 0 0 0 0 0
12-03-2020 20.8 (15:30) 5.7 (00:00) 13.2 6.94 (12:00) 3.89 (12:10) 0 0 0 0 0
11-03-2020 23.2 (15:30) 2.5 (00:00) 12.9 6.39 (15:50) 3.61 (16:00) 0 0 0 0 0
10-03-2020 22.1 (15:50) 0.9 (00:00) 11.5 5.28 (16:30) 2.78 (13:30) 0 0 0 0 0
09-03-2020 15 (16:30) 0.1 (00:00) 7.6 8.89 (13:50) 4.44 (15:00) 0 0 0 0 0
08-03-2020 12.3 (17:20) -3.8 (-00:0) 4.3 7.22 (17:50) 3.33 (18:00) 0 0 0 0 0
07-03-2020 15.2 (16:30) -1.6 (-00:0) 6.8 5.28 (17:00) 2.5 (17:10) 0 0 0 0 0
06-03-2020 9.8 (16:10) 3 (00:00) 6.4 15 (10:50) 7.22 (12:20) 0 0 0 0 0
05-03-2020 11.3 (16:00) 4.8 (00:00) 8.1 13.61 (06:40) 6.67 (07:00) 2.8 0.2 2.6 0 0
04-03-2020 13.4 (14:50) 5.9 (06:50) 9.6 6.39 (22:10) 3.89 (22:30) 0 0 0 0 0

Gráficas

Temp. máximas Temp. mínimas Temp. medias Precipitaciones Rachas de viento máximas Velocidades máximas media en intervalos de 10 minutos

Datos horarios

Fecha y hora oficial Temperatura (ºC) Velocidad del viento (km/h) Dirección del viento Racha (km/h) Dirección de racha Precipitación (mm) Presión (hPa) Tendencia (hPa) Humedad (%)
2020-04-02 23:00:00 3 3 Sur 4 Sur 0 -- -- 88
2020-04-02 22:00:00 5.4 2 Sur 4 Sur 0 -- -- 85
2020-04-02 21:00:00 9.7 0 Calma 15 Nordeste 0 -- -- 72
2020-04-02 20:00:00 11.5 8 Norte 23 Norte 0 -- -- 63
2020-04-02 19:00:00 12.8 9 Norte 26 Norte 0 -- -- 57
2020-04-02 18:00:00 13.1 10 Norte 31 Norte 0 -- -- 59
2020-04-02 17:00:00 12.6 11 Norte 26 Norte 0 -- -- 62
2020-04-02 16:00:00 11.7 7 Norte 28 Norte 0 -- -- 70
2020-04-02 15:00:00 10.4 7 Norte 24 Nordeste 0 -- -- 72
2020-04-02 14:00:00 10 9 Norte 28 Norte 0 -- -- 78
2020-04-02 13:00:00 7.6 10 Norte 27 Noroeste 0 -- -- 90
2020-04-02 12:00:00 6.2 8 Norte 23 Norte 0 -- -- 94
2020-04-02 11:00:00 4.7 7 Norte 17 Noroeste 0 -- -- 100
2020-04-02 10:00:00 1 0 Calma 3 Sur 0 -- -- 100
2020-04-02 09:00:00 -1.6 0 Calma 3 Sur 0 -- -- 100
2020-04-02 08:00:00 -1.9 0 Calma 3 Sudoeste 0 -- -- 100
2020-04-02 07:00:00 -1.9 0 Calma 4 Sur 0 -- -- 99
2020-04-02 06:00:00 -1.8 2 Sur 3 Sur 0 -- -- 99
2020-04-02 05:00:00 -1.5 2 Sur 3 Sur 0 -- -- 97
2020-04-02 04:00:00 -0.1 0 Calma 2 Sudoeste 0 -- -- 97
2020-04-02 03:00:00 1.1 0 Calma 3 Sur 0 -- -- 99
2020-04-02 02:00:00 0.4 0 Calma 4 Sur 0 -- -- 99
2020-04-02 01:00:00 -0.1 0 Calma 4 Sur 0 -- -- 96
2020-04-02 00:00:00 0.7 3 Sudoeste 5 Sudoeste 0 -- -- 94
2020-04-01 23:00:00 2.2 0 Calma 4 Sur 0 -- -- 92
2020-04-01 22:00:00 3.5 0 Calma 4 Norte 0 -- -- 87
2020-04-01 21:00:00 6.3 0 Calma 15 Sur 0 -- -- 77
2020-04-01 20:00:00 8.1 7 Sudeste 18 Sur 0 -- -- 64
2020-04-01 19:00:00 8.4 6 Sudeste 24 Sudeste 0 -- -- 61
2020-04-01 18:00:00 8.5 14 Sudeste 28 Sur 0 -- -- 67
2020-04-01 17:00:00 8.4 11 Sudeste 26 Sur 0 -- -- 66
2020-04-01 16:00:00 8.6 12 Sudeste 27 Sudeste 0 -- -- 65
2020-04-01 15:00:00 8 13 Sur 30 Sur 0 -- -- 71
2020-04-01 14:00:00 7.6 14 Sur 27 Este 0 -- -- 68
2020-04-01 13:00:00 6.1 12 Sudeste 24 Sur 0 -- -- 76
2020-04-01 12:00:00 5.4 12 Sudeste 23 Sudeste 0 -- -- 77
2020-04-01 11:00:00 5.5 12 Sur 21 Sur 0 -- -- 84
2020-04-01 10:00:00 2.7 5 Sur 14 Sur 0 -- -- 100
2020-04-01 09:00:00 -1.3 0 Calma 2 Sur 0 -- -- 100
2020-04-01 08:00:00 -1.9 0 Calma 3 Sudoeste 0 -- -- 99
2020-04-01 07:00:00 -1 0 Calma 14 Sudoeste 0 -- -- 97
2020-04-01 06:00:00 0.3 5 Sur 13 Sur 0 -- -- 97
2020-04-01 05:00:00 0.5 2 Sur 18 Sur 0 -- -- 93
2020-04-01 04:00:00 0.8 3 Oeste 15 Oeste 0 -- -- 98
2020-04-01 03:00:00 0.8 3 Norte 11 Norte 0 -- -- 97
2020-04-01 02:00:00 1 0 Calma 6 Sudeste 0 -- -- 97
2020-04-01 01:00:00 2.8 5 Sur 27 Sudoeste 0 -- -- 96
2020-04-01 00:00:00 4 8 Sur 20 Sudoeste 0 -- -- 100
2020-03-31 23:00:00 4.5 11 Sur 27 Sur 0 -- -- 99
2020-03-31 22:00:00 5 8 Sur 23 Sur 0 -- -- 97
2020-03-31 21:00:00 5.2 2 Sur 15 Sur 1 -- -- 97
2020-03-31 20:00:00 5.5 4 Sur 11 Sur 2.6 -- -- 98
2020-03-31 19:00:00 5.5 0 Calma 9 Sudeste 1.2 -- -- 98
2020-03-31 18:00:00 5.5 4 Este 10 Nordeste 1.4 -- -- 98
2020-03-31 17:00:00 5.3 6 Sudeste 13 Sudeste 2.8 -- -- 97
2020-03-31 16:00:00 5 3 Sudeste 15 Sudeste 3.6 -- -- 95
2020-03-31 15:00:00 4.5 4 Este 12 Este 3.8 -- -- 94
2020-03-31 14:00:00 2.7 2 Noroeste 4 Noroeste 2.2 -- -- 95
2020-03-31 13:00:00 1.7 0 Calma 4 Nordeste 0.6 -- -- 94
2020-03-31 12:00:00 0.7 0 Calma -- -- 0 -- -- 97
2020-03-31 11:00:00 0.2 0 Calma -- -- 0 -- -- 98
2020-03-31 10:00:00 -0.3 0 Calma -- -- 0 -- -- 98
2020-03-31 09:00:00 -0.6 0 Calma -- -- 0 -- -- 99
2020-03-31 08:00:00 -0.6 0 Calma 3 Norte 0 -- -- 98
2020-03-31 07:00:00 -0.5 0 Calma 8 Nordeste 0 -- -- 97
2020-03-31 06:00:00 -0.2 3 Norte 12 Norte 0 -- -- 94
2020-03-31 05:00:00 0.1 4 Norte 13 Norte 0 -- -- 91
2020-03-31 04:00:00 0.4 4 Norte 11 Norte 0 -- -- 88
2020-03-31 03:00:00 0.6 4 Norte 13 Norte 0 -- -- 86
2020-03-31 02:00:00 0.7 3 Norte 13 Norte 0 -- -- 88
2020-03-31 01:00:00 0.4 3 Norte 11 Nordeste 0 -- -- 95
2020-03-31 00:00:00 0.4 4 Norte 13 Norte 0 -- -- 94
2020-03-30 23:00:00 0.5 4 Norte 13 Norte 0 -- -- 95
2020-03-30 22:00:00 0.5 2 Norte 17 Nordeste 0 -- -- 92
2020-03-30 21:00:00 1.1 5 Norte 13 Norte 0 -- -- 86
2020-03-30 20:00:00 1.1 5 Norte 17 Norte 0 -- -- 87
2020-03-30 19:00:00 1.9 10 Norte 20 Nordeste 0 -- -- 84
2020-03-30 18:00:00 3.5 7 Norte 26 Nordeste 0 -- -- 70
2020-03-30 17:00:00 4.7 8 Norte 22 Norte 0 -- -- 62
2020-03-30 16:00:00 5 6 Norte 21 Noroeste 0 -- -- 63
2020-03-30 15:00:00 4.9 6 Norte 23 Norte 0 -- -- 66
2020-03-30 14:00:00 5.3 5 Norte 23 Norte 0 -- -- 65
2020-03-30 13:00:00 4.9 7 Norte 20 Norte 0 -- -- 72
2020-03-30 12:00:00 4.7 6 Norte 19 Norte 0 -- -- 74
2020-03-30 11:00:00 4.7 8 Norte 22 Norte 0 -- -- 75
2020-03-30 10:00:00 4.2 8 Norte 14 Norte 0 -- -- 83
2020-03-30 09:00:00 4 4 Noroeste 11 Noroeste 0 -- -- 85
2020-03-30 08:00:00 4.2 3 Noroeste 9 Noroeste 0 -- -- 86
2020-03-30 07:00:00 4.7 4 Noroeste 10 Noroeste 0 -- -- 85
2020-03-30 06:00:00 4.8 2 Noroeste 6 Norte 0 -- -- 89
2020-03-30 05:00:00 3.6 2 Sur 4 Sur 0 -- -- 97
2020-03-30 04:00:00 2.8 2 Sur 4 Sur 0 -- -- 91
2020-03-30 03:00:00 4.3 0 Calma 3 Sur 0 -- -- 92
2020-03-30 02:00:00 3.8 0 Calma 2 Sur 0 -- -- 92
2020-03-30 01:00:00 4 0 Calma 5 Sur 0 -- -- 87
2020-03-30 00:00:00 4.8 2 Sudoeste 4 Sur 0 -- -- 85
2020-03-29 23:00:00 5.7 0 Calma 3 Sur 0 -- -- 80
2020-03-29 22:00:00 7.8 0 Calma 4 Sur 0 -- -- 74
2020-03-29 21:00:00 10.6 3 Sur 14 Sudoeste 0 -- -- 62
2020-03-29 20:00:00 13 11 Sudoeste 21 Sudoeste 0 -- -- 52
2020-03-29 19:00:00 14.2 4 Sudoeste 20 Sur 0 -- -- 48
2020-03-29 18:00:00 15.1 12 Sur 21 Sudoeste 0 -- -- 44
2020-03-29 17:00:00 15.4 5 Sudoeste 24 Sudoeste 0 -- -- 44
2020-03-29 16:00:00 15.1 12 Sur 24 Sudoeste 0 -- -- 47
2020-03-29 15:00:00 15.4 6 Sur 21 Sur 0 -- -- 44
2020-03-29 14:00:00 14 7 Sur 17 Sur 0 -- -- 48
2020-03-29 13:00:00 13.9 5 Sur 15 Sudeste 0 -- -- 43
2020-03-29 12:00:00 12.6 4 Este 10 Norte 0 -- -- 46
2020-03-29 11:00:00 9.5 3 Noroeste 5 Norte 0 -- -- 70
2020-03-29 10:00:00 2.7 0 Calma 3 Sudoeste 0 -- -- 100
2020-03-29 09:00:00 -1.5 2 Sudoeste -- -- 0 -- -- 99
2020-03-29 08:00:00 -1.6 2 Sur 3 Sudoeste 0 -- -- 98
2020-03-29 07:00:00 -1.3 2 Sur 4 Sur 0 -- -- 97
2020-03-29 06:00:00 -0.7 2 Sudoeste -- -- 0 -- -- 96
2020-03-29 05:00:00 0 2 Sur 4 Sur 0 -- -- 96
2020-03-29 03:00:00 1.1 2 Sur 4 Sur 0 -- -- 93
2020-03-29 01:00:00 1.9 0 Calma 3 Sur 0 -- -- 92
2020-03-29 00:00:00 2.2 2 Sur 3 Sur 0 -- -- 90
2020-03-28 23:00:00 2.5 0 Calma 3 Sudoeste 0 -- -- 86
2020-03-28 22:00:00 3.8 2 Sur 5 Sur 0 -- -- 80
2020-03-28 21:00:00 5.4 3 Sur 4 Sudoeste 0 -- -- 75
2020-03-28 20:00:00 8.5 3 Sur 17 Sudeste 0 -- -- 59
2020-03-28 19:00:00 11.3 7 Sudeste 23 Sudeste 0 -- -- 44
2020-03-28 18:00:00 11.6 11 Sudeste 23 Sudeste 0 -- -- 46
2020-03-28 17:00:00 11.5 9 Sudeste 26 Sudeste 0 -- -- 51
2020-03-28 16:00:00 11.2 11 Sudeste 27 Sudeste 0 -- -- 54
2020-03-28 15:00:00 11.1 15 Sudeste 29 Sudeste 0 -- -- 51
2020-03-28 14:00:00 11.7 12 Sur 24 Sur 0 -- -- 50
2020-03-28 13:00:00 11.2 13 Sur 25 Sur 0 -- -- 48
2020-03-28 12:00:00 10.4 9 Sur 18 Sudeste 0 -- -- 50
2020-03-28 11:00:00 8.1 5 Norte 14 Norte 0 -- -- 64
2020-03-28 10:00:00 5.2 2 Oeste 5 Noroeste 0 -- -- 81
2020-03-28 09:00:00 0.5 0 Calma 4 Sudoeste 0 -- -- 99
2020-03-28 08:00:00 -2.1 0 Calma 4 Sur 0 -- -- 99
2020-03-28 07:00:00 -2.7 0 Calma 2 Sur 0 -- -- 98
2020-03-28 06:00:00 -2.9 0 Calma 2 Sur 0 -- -- 97
2020-03-28 05:00:00 -3 0 Calma 3 Sur 0 -- -- 96
2020-03-28 04:00:00 -2.8 2 Sudoeste 3 Sur 0 -- -- 96
2020-03-28 03:00:00 -2.1 3 Sur 4 Sur 0 -- -- 93
2020-03-28 02:00:00 -1.1 2 Sur 6 Sudoeste 0 -- -- 93
2020-03-28 01:00:00 -1 0 Calma 7 Sur 0 -- -- 93
2020-03-28 00:00:00 -0.4 4 Sur 8 Sur 0 -- -- 92
2020-03-27 23:00:00 0.3 5 Sur 7 Sur 0 -- -- 90
2020-03-27 22:00:00 1.4 3 Sur 5 Sur 0 -- -- 86
2020-03-27 21:00:00 3.6 0 Calma 5 Sur 0 -- -- 81
2020-03-27 20:00:00 6 3 Sur 15 Sur 0 -- -- 71
2020-03-27 19:00:00 8.4 9 Sur 20 Sur 0 -- -- 64
2020-03-27 18:00:00 8.1 6 Sur 21 Sur 0 -- -- 66
2020-03-27 17:00:00 8.8 9 Sur 22 Sur 0 -- -- 64
2020-03-27 16:00:00 8.5 10 Sudeste 22 Sudeste 0 -- -- 64
2020-03-27 15:00:00 9.2 5 Este 21 Sudeste 0 -- -- 55
2020-03-27 14:00:00 9.2 6 Noroeste 19 Noroeste 0 -- -- 52
2020-03-27 13:00:00 8.7 6 Nordeste 21 Norte 0 -- -- 55
2020-03-27 12:00:00 7.3 9 Norte 21 Norte 0 -- -- 60
2020-03-27 11:00:00 6.6 4 Nordeste 17 Norte 0 -- -- 62
2020-03-27 10:00:00 4.6 6 Norte 12 Noroeste 0 -- -- 67
2020-03-27 09:00:00 1.1 0 Calma 3 Este 0 -- -- 85
2020-03-27 08:00:00 -1.3 3 Sur 4 Sur 0 -- -- 94
2020-03-27 07:00:00 0.1 0 Calma 4 Oeste 0 -- -- 90
2020-03-27 06:00:00 1.4 3 Noroeste 10 Norte 0 -- -- 91
2020-03-27 05:00:00 2.3 0 Calma 4 Sudoeste 0 -- -- 98
2020-03-27 04:00:00 0.6 0 Calma 4 Sudoeste 0 -- -- 99
2020-03-27 03:00:00 -0.3 0 Calma 4 Sur 0 -- -- 95
2020-03-27 02:00:00 0.9 0 Calma 3 Sur 0 -- -- 93
2020-03-27 01:00:00 1.7 0 Calma 3 Sur 0 -- -- 92
2020-03-27 00:00:00 3.2 0 Calma 3 Sur 0 -- -- 89
2020-03-26 23:00:00 5.7 0 Calma 15 Norte 0 -- -- 80
2020-03-26 22:00:00 8.2 3 Noroeste 11 Oeste 0 -- -- 76
2020-03-26 21:00:00 9.1 2 Noroeste 14 Noroeste 0 -- -- 74
2020-03-26 20:00:00 11.1 6 Noroeste 21 Norte 0 -- -- 65
2020-03-26 19:00:00 14.2 10 Norte 22 Norte 0 -- -- 46
2020-03-26 18:00:00 15.2 12 Noroeste 22 Oeste 0 -- -- 42
2020-03-26 17:00:00 15.6 11 Norte 24 Noroeste 0 -- -- 40
2020-03-26 16:00:00 15.1 10 Norte 25 Noroeste 0 -- -- 45
2020-03-26 15:00:00 14.6 11 Noroeste 26 Oeste 0 -- -- 50
2020-03-26 14:00:00 13.5 14 Noroeste 31 Nordeste 0 -- -- 45
2020-03-26 13:00:00 12.7 12 Norte 32 Noroeste 0 -- -- 40
2020-03-26 12:00:00 11.3 11 Norte 23 Norte 0 -- -- 51
2020-03-26 11:00:00 9.4 10 Norte 19 Norte 0 -- -- 66
2020-03-26 10:00:00 6.3 9 Noroeste 23 Noroeste 0 -- -- 89
2020-03-26 09:00:00 5.5 12 Noroeste 23 Noroeste 0 -- -- 89
2020-03-26 08:00:00 4.8 2 Nordeste 19 Noroeste 0 -- -- 90
2020-03-26 07:00:00 5.2 6 Noroeste 16 Noroeste 0 -- -- 88
2020-03-26 06:00:00 5.8 7 Noroeste 13 Noroeste 0 -- -- 85
2020-03-26 05:00:00 6.3 6 Noroeste 13 Noroeste 0 -- -- 83
2020-03-26 04:00:00 7.3 7 Noroeste 15 Norte 0 -- -- 79
2020-03-26 03:00:00 7.7 2 Este 22 Noroeste 0 -- -- 78
2020-03-26 02:00:00 7.7 9 Noroeste 19 Oeste 0 -- -- 81
2020-03-26 01:00:00 6.9 0 Calma 8 Oeste 0 -- -- 85
2020-03-26 00:00:00 7.7 0 Calma 6 Noroeste 0 -- -- 85
2020-03-25 23:00:00 8 2 Noroeste 8 Oeste 0 -- -- 88
2020-03-25 22:00:00 8.1 0 Calma 8 Oeste 0 -- -- 92
2020-03-25 21:00:00 9.4 10 Noroeste 41 Noroeste 1.8 -- -- 80
2020-03-25 20:00:00 12.9 7 Noroeste 17 Oeste 0 -- -- 67
2020-03-25 19:00:00 15 11 Oeste 29 Oeste 0 -- -- 53
2020-03-25 18:00:00 15.4 11 Noroeste 23 Noroeste 0 -- -- 50
2020-03-25 17:00:00 15.5 9 Noroeste 27 Noroeste 0 -- -- 53
2020-03-25 16:00:00 16.2 7 Noroeste 22 Oeste 0 -- -- 48
2020-03-25 15:00:00 15.9 9 Noroeste 22 Nordeste 0 -- -- 48
2020-03-25 14:00:00 14.5 8 Norte 29 Noroeste 0 -- -- 53
2020-03-25 13:00:00 14.8 9 Norte 24 Norte 0 -- -- 54
2020-03-25 12:00:00 13.5 9 Noroeste 21 Noroeste 0 -- -- 59
2020-03-25 11:00:00 12.4 10 Noroeste 21 Norte 0 -- -- 71
2020-03-25 10:00:00 10.3 8 Noroeste 16 Norte 0 -- -- 81
2020-03-25 09:00:00 3.6 0 Calma 3 Sur 0 -- -- 100
2020-03-25 08:00:00 0.2 3 Sur 5 Sur 0 -- -- 100
2020-03-25 07:00:00 0.2 0 Calma 3 Sudoeste 0 -- -- 100
2020-03-25 06:00:00 0.6 0 Calma 3 Sur 0 -- -- 100
2020-03-25 05:00:00 1 0 Calma 4 Sur 0 -- -- 100
2020-03-25 04:00:00 1.4 0 Calma 4 Sur 0 -- -- 99
2020-03-25 03:00:00 1.9 2 Sudoeste 4 Sur 0 -- -- 98
2020-03-25 02:00:00 2.4 3 Sur 4 Sur 0 -- -- 97
2020-03-25 01:00:00 3.7 0 Calma 4 Sur 0 -- -- 96
2020-03-25 00:00:00 5.5 0 Calma 4 Sur 0 -- -- 93
2020-03-24 23:00:00 7.8 3 Sur 6 Sur 0 -- -- 94
2020-03-24 22:00:00 8 0 Calma 8 Sudoeste 0 -- -- 93
2020-03-24 21:00:00 8.4 2 Sudeste 7 Sur 0 -- -- 91
2020-03-24 20:00:00 9.9 3 Sudeste 11 Sudoeste 0 -- -- 81
2020-03-24 19:00:00 12.7 3 Sur 9 Sudeste 0 -- -- 70
2020-03-24 18:00:00 13.2 3 Sudeste 6 Este 0 -- -- 68
2020-03-24 17:00:00 13.3 2 Norte 8 Sudoeste 0 -- -- 64
2020-03-24 16:00:00 13.2 5 Sur 16 Este 0 -- -- 62
2020-03-24 15:00:00 12.7 8 Sudeste 18 Sudeste 0 -- -- 65
2020-03-24 14:00:00 12.3 0 Calma 12 Norte 0 -- -- 67
2020-03-24 13:00:00 11.9 2 Este 14 Noroeste 0 -- -- 73
2020-03-24 12:00:00 12.3 4 Nordeste 14 Norte 0 -- -- 67
2020-03-24 11:00:00 9.5 3 Norte 9 Norte 0 -- -- 85
2020-03-24 10:00:00 6.6 0 Calma 4 Sur 0 -- -- 100
2020-03-24 09:00:00 2.8 0 Calma 3 Sur 0 -- -- 100
2020-03-24 08:00:00 0.2 0 Calma 3 Sur 0 -- -- 100
2020-03-24 07:00:00 0.3 0 Calma 3 Sudoeste 0 -- -- 100
2020-03-24 06:00:00 1 0 Calma 3 Este 0 -- -- 100
2020-03-24 05:00:00 0.6 0 Calma 14 Este 0 -- -- 100
2020-03-24 04:00:00 0.6 0 Calma 2 Norte 0 -- -- 100
2020-03-24 03:00:00 0.9 0 Calma 3 Sudoeste 0 -- -- 100
2020-03-24 02:00:00 1 0 Calma 4 Sudoeste 0 -- -- 100
2020-03-24 01:00:00 1.4 0 Calma 3 Sur 0 -- -- 100
2020-03-24 00:00:00 1.7 0 Calma 3 Sur 0 -- -- 99
2020-03-23 23:00:00 2.3 2 Sudoeste 5 Sudoeste 0 -- -- 98
2020-03-23 22:00:00 3.7 0 Calma 4 Sudoeste 0 -- -- 99
2020-03-23 21:00:00 4.5 3 Sur 5 Sudoeste 0 -- -- 96
2020-03-23 20:00:00 7 3 Sur 6 Sur 0 -- -- 93
2020-03-23 19:00:00 9.7 2 Sudoeste 8 Oeste 0 -- -- 91
2020-03-23 18:00:00 8.5 0 Calma 34 Sudeste 3 -- -- 92
2020-03-23 17:00:00 11.2 11 Sudeste 21 Sudeste 0 -- -- 73
2020-03-23 16:00:00 10.6 2 Este 23 Nordeste 1.8 -- -- 84
2020-03-23 15:00:00 12.3 3 Norte 14 Norte 0 -- -- 70
2020-03-23 14:00:00 11.2 3 Nordeste 15 Norte 0 -- -- 73
2020-03-23 13:00:00 11.2 4 Norte 14 Noroeste 0 -- -- 74
2020-03-23 12:00:00 9 4 Norte 12 Norte 0 -- -- 86
2020-03-23 11:00:00 6.7 5 Oeste 8 Noroeste 0 -- -- 100
2020-03-23 10:00:00 5.3 0 Calma 3 Noroeste 0 -- -- 100
2020-03-23 09:00:00 2.3 0 Calma 2 Sur 0 -- -- 100
2020-03-23 08:00:00 -0.1 2 Sur 3 Sur 0 -- -- 100
2020-03-23 07:00:00 -0.3 0 Calma 3 Sur 0 -- -- 100
2020-03-23 06:00:00 0.2 2 Sur 4 Sur 0 -- -- 99
2020-03-23 05:00:00 0.9 0 Calma 4 Sur 0 -- -- 99
2020-03-23 04:00:00 2 0 Calma 4 Sur 0 -- -- 98
2020-03-23 03:00:00 3.2 0 Calma 3 Sur 0 -- -- 97
2020-03-23 02:00:00 4.8 0 Calma 4 Sudeste 0 -- -- 97
2020-03-23 01:00:00 5.1 0 Calma 4 Sur 0 -- -- 97
2020-03-23 00:00:00 5.4 0 Calma 3 Sur 0 -- -- 97
2020-03-22 23:00:00 5.3 0 Calma 2 Oeste 0 -- -- 93
2020-03-22 22:00:00 5.9 0 Calma 4 Sur 0 -- -- 96
2020-03-22 21:00:00 6.1 0 Calma 2 Sudeste 0 -- -- 90
2020-03-22 20:00:00 9.2 0 Calma 14 Norte 0 -- -- 79
2020-03-22 19:00:00 11.3 4 Norte 18 Norte 0 -- -- 68
2020-03-22 18:00:00 11.7 8 Norte 13 Norte 0 -- -- 67
2020-03-22 17:00:00 11.2 4 Norte 14 Norte 0 -- -- 68
2020-03-22 16:00:00 11.5 2 Este 17 Norte 0 -- -- 69
2020-03-22 15:00:00 10.8 4 Norte 18 Norte 0 -- -- 70
2020-03-22 14:00:00 9.9 4 Norte 15 Norte 0 -- -- 78
2020-03-22 13:00:00 9.3 5 Nordeste 15 Norte 0 -- -- 80
2020-03-22 12:00:00 7.1 6 Norte 15 Norte 0 -- -- 92
2020-03-22 11:00:00 5.7 3 Este 8 Norte 0 -- -- 100
2020-03-22 10:00:00 4.3 2 Nordeste 4 Este 0 -- -- 100
2020-03-22 09:00:00 2.8 0 Calma 4 Nordeste 0 -- -- 100
2020-03-22 08:00:00 1.7 0 Calma 2 Sur 0 -- -- 100
2020-03-22 07:00:00 0.6 0 Calma 2 Sur 0 -- -- 100
2020-03-22 06:00:00 -0.6 0 Calma 3 Sur 0 -- -- 100
2020-03-22 05:00:00 -0.9 0 Calma 3 Sur 0 -- -- 100
2020-03-22 04:00:00 -0.4 0 Calma 2 Norte 0 -- -- 100
2020-03-22 03:00:00 -0.2 2 Sudoeste 3 Sudoeste 0 -- -- 99
2020-03-22 02:00:00 1.1 0 Calma 3 Sur 0 -- -- 100
2020-03-22 01:00:00 1.8 0 Calma 3 Sur 0 -- -- 100
2020-03-22 00:00:00 0.4 0 Calma 4 Sur 0 -- -- 100
2020-03-21 23:00:00 0.2 0 Calma 4 Sur 0 -- -- 97
2020-03-21 22:00:00 1.1 0 Calma 5 Sudoeste 0 -- -- 96
2020-03-21 21:00:00 2.6 2 Sudoeste 5 Sur 0 -- -- 92
2020-03-21 20:00:00 5.7 2 Sur 10 Sudeste 0 -- -- 85
2020-03-21 19:00:00 8.6 0 Calma 13 Sudeste 0 -- -- 72
2020-03-21 18:00:00 7.4 9 Sudeste 20 Sudeste 0 -- -- 82
2020-03-21 17:00:00 8.5 9 Sudeste 19 Sudeste 0 -- -- 72
2020-03-21 16:00:00 8 8 Sudeste 15 Sudeste 0 -- -- 82
2020-03-21 15:00:00 6.9 8 Sudeste 17 Sudeste 0 -- -- 86
2020-03-21 14:00:00 7.1 6 Sudeste 21 Sudeste 0 -- -- 85
2020-03-21 13:00:00 6.4 12 Sudeste 22 Sudeste 0 -- -- 92
2020-03-21 12:00:00 5.8 12 Sudeste 26 Sudeste 0.2 -- -- 93
2020-03-21 11:00:00 5 10 Sudeste 24 Sudeste 0.4 -- -- 95
2020-03-21 10:00:00 5.2 5 Sudeste 20 Sudeste 1 -- -- 97
2020-03-21 09:00:00 5 5 Sudeste 14 Sur 0.6 -- -- 93
2020-03-21 08:00:00 5.2 3 Este 13 Este 0.2 -- -- 95
2020-03-21 07:00:00 5.4 6 Sudeste 14 Sudeste 0 -- -- 94
2020-03-21 06:00:00 5.5 4 Sudeste 11 Sudeste 1.2 -- -- 96
2020-03-21 05:00:00 5.6 2 Sur 4 Sur 1.4 -- -- 100
2020-03-21 04:00:00 5.6 0 Calma 6 Sudoeste 2.4 -- -- 98
2020-03-21 03:00:00 5.8 3 Sudoeste 16 Sudoeste 0.8 -- -- 95
2020-03-21 02:00:00 6.4 4 Sudoeste 14 Sudoeste 2.2 -- -- 97
2020-03-21 01:00:00 7 13 Sudoeste 23 Sur 6.8 -- -- 95
2020-03-21 00:00:00 8.3 11 Sur 24 Sur 5.6 -- -- 96
2020-03-20 23:00:00 8.4 6 Este 23 Este 0 -- -- 97
2020-03-20 22:00:00 8.2 6 Este 14 Sudeste 0.6 -- -- 98
2020-03-20 21:00:00 7.9 0 Calma 14 Sudoeste 3 -- -- 96
2020-03-20 20:00:00 8.2 6 Sur 24 Este 2 -- -- 95
2020-03-20 19:00:00 8.4 10 Sudeste 28 Sudeste 2 -- -- 96
2020-03-20 18:00:00 8.3 12 Sudeste 28 Sudeste 1.4 -- -- 98
2020-03-20 17:00:00 8.6 12 Sudeste 23 Sudeste 0.2 -- -- 97
2020-03-20 16:00:00 8.7 11 Sudeste 24 Sudeste 0.2 -- -- 96
2020-03-20 15:00:00 8.3 10 Sudeste 28 Este 2 -- -- 96
2020-03-20 14:00:00 8 9 Sudeste 28 Sudeste 0.4 -- -- 96
2020-03-20 13:00:00 7.6 8 Sudeste 23 Sudeste 1 -- -- 96
2020-03-20 12:00:00 7.7 9 Sudeste 24 Sudeste 2.2 -- -- 96
2020-03-20 11:00:00 7.7 12 Sudeste 27 Sudeste 4 -- -- 96
2020-03-20 10:00:00 7.7 8 Sudeste 27 Sudeste 6.4 -- -- 94
2020-03-20 09:00:00 8.4 14 Sudeste 33 Sur 0 -- -- 91
2020-03-20 08:00:00 8.4 9 Sur 32 Sudeste 0 -- -- 89
2020-03-20 07:00:00 8.4 15 Sudeste 28 Sudeste 0 -- -- 88
2020-03-20 06:00:00 9.1 12 Sudeste 27 Este 0 -- -- 82
2020-03-20 05:00:00 9.3 9 Sudeste 28 Sudeste 0 -- -- 82
2020-03-20 04:00:00 9.6 12 Sudeste 27 Sudeste 0 -- -- 81
2020-03-20 03:00:00 9.9 9 Sudeste 27 Sudeste 0 -- -- 79
2020-03-20 02:00:00 10.2 13 Sudeste 42 Sudeste 0 -- -- 77
2020-03-20 01:00:00 10.9 17 Sudeste 37 Sudeste 0 -- -- 73
2020-03-20 00:00:00 11.2 11 Sur 25 Sur 0 -- -- 70
2020-03-19 23:00:00 10.5 8 Sur 18 Sudeste 0 -- -- 73
2020-03-19 22:00:00 10.4 6 Sur 18 Sur 0 -- -- 72
2020-03-19 21:00:00 9.5 4 Sur 13 Nordeste 0 -- -- 77
2020-03-19 20:00:00 10.3 2 Sur 7 Sudoeste 0 -- -- 80
2020-03-19 19:00:00 11.8 3 Sudoeste 11 Sur 0 -- -- 73
2020-03-19 18:00:00 13.1 2 Sudoeste 12 Sudoeste 0 -- -- 72
2020-03-19 17:00:00 14.4 4 Sudoeste 12 Sudeste 0 -- -- 67
2020-03-19 16:00:00 15 8 Sudeste 18 Norte 0 -- -- 62
2020-03-19 15:00:00 16.5 5 Nordeste 15 Este 0 -- -- 57
2020-03-19 14:00:00 16.1 5 Este 17 Este 0 -- -- 56
2020-03-19 13:00:00 14.6 4 Este 15 Sudeste 0 -- -- 61
2020-03-19 12:00:00 12.3 3 Nordeste 10 Sudeste 0 -- -- 68
2020-03-19 11:00:00 10.7 0 Calma 3 Norte 0 -- -- 70
2020-03-19 10:00:00 9.2 2 Nordeste 5 Nordeste 0 -- -- 76
2020-03-19 09:00:00 8.8 3 Norte 7 Norte 0 -- -- 71
2020-03-19 08:00:00 9.5 2 Norte 17 Sudeste 0 -- -- 69
2020-03-19 07:00:00 10.7 8 Sudeste 20 Sudeste 0 -- -- 62
2020-03-19 06:00:00 10.6 8 Sudeste 23 Sur 0 -- -- 69
2020-03-19 05:00:00 7.3 2 Nordeste 5 Norte 0 -- -- 87
2020-03-19 04:00:00 8.2 0 Calma 4 Noroeste 0 -- -- 81
2020-03-19 03:00:00 11.1 0 Calma 17 Sudeste 0 -- -- 68
2020-03-19 02:00:00 12.1 6 Sur 14 Sudeste 0 -- -- 63
2020-03-19 01:00:00 11.5 4 Sur 19 Sudeste 0 -- -- 64
2020-03-19 00:00:00 10.6 2 Sudeste 14 Sudeste 0 -- -- 68
2020-03-18 23:00:00 7.7 3 Sudoeste 6 Sur 0 -- -- 92
2020-03-18 22:00:00 8 0 Calma 4 Sur 0 -- -- 90
2020-03-18 21:00:00 9.1 2 Sur 5 Sur 0 -- -- 86
2020-03-18 20:00:00 10.7 4 Sur 5 Sudoeste 0 -- -- 82
2020-03-18 19:00:00 13.5 2 Sur 11 Sudeste 0 -- -- 70
2020-03-18 18:00:00 14.9 4 Sudeste 8 Sur 0 -- -- 57
2020-03-18 17:00:00 15.4 3 Sur 10 Sudeste 0 -- -- 58
2020-03-18 16:00:00 15.7 5 Sudeste 22 Sudeste 0 -- -- 49
2020-03-18 15:00:00 16.6 10 Este 27 Este 0 -- -- 46
2020-03-18 14:00:00 16.8 10 Sudeste 27 Sudeste 0 -- -- 42
2020-03-18 13:00:00 15.6 4 Norte 16 Sudeste 0 -- -- 51
2020-03-18 12:00:00 12.6 3 Norte 12 Norte 0 -- -- 78
2020-03-18 11:00:00 10.8 3 Nordeste 10 Noroeste 0 -- -- 88
2020-03-18 10:00:00 6.4 0 Calma 5 Sudoeste 0 -- -- 100
2020-03-18 09:00:00 1.9 0 Calma 4 Sur 0 -- -- 100
2020-03-18 08:00:00 0.8 2 Sur 6 Sur 0 -- -- 100
2020-03-18 07:00:00 0.7 2 Sur 6 Sur 0 -- -- 100
2020-03-18 06:00:00 1.1 0 Calma 6 Sudoeste 0 -- -- 100
2020-03-18 05:00:00 0.8 2 Sur 3 Sur 0 -- -- 99
2020-03-18 04:00:00 1 0 Calma 5 Sur 0 -- -- 98
2020-03-18 03:00:00 1.6 2 Sur 4 Sudoeste 0 -- -- 97
2020-03-18 02:00:00 2.3 0 Calma 4 Norte 0 -- -- 96
2020-03-18 01:00:00 3.4 0 Calma 5 Sur 0 -- -- 92
2020-03-18 00:00:00 5.2 0 Calma 4 Sur 0 -- -- 94
2020-03-17 23:00:00 3.8 0 Calma 5 Sudeste 0 -- -- 96
2020-03-17 22:00:00 3.4 4 Sur 6 Sudoeste 0 -- -- 91
2020-03-17 21:00:00 5.3 3 Sur 5 Sur 0 -- -- 88
2020-03-17 20:00:00 8.8 0 Calma 3 Sur 0 -- -- 76
2020-03-17 19:00:00 11.6 2 Sudeste 16 Sudeste 0 -- -- 61
2020-03-17 18:00:00 12.1 8 Sudeste 22 Sudeste 0 -- -- 56
2020-03-17 17:00:00 12.9 10 Sur 32 Sudeste 0 -- -- 54
2020-03-17 16:00:00 13.1 14 Sudeste 30 Sudeste 0 -- -- 52
2020-03-17 15:00:00 13.2 6 Este 28 Sudeste 0 -- -- 53
2020-03-17 14:00:00 12.7 9 Este 28 Este 0 -- -- 51
2020-03-17 13:00:00 9.9 7 Norte 15 Norte 0 -- -- 71
2020-03-17 12:00:00 8.8 7 Norte 17 Norte 0 -- -- 75
2020-03-17 11:00:00 7.1 4 Nordeste 15 Norte 0 -- -- 87
2020-03-17 10:00:00 4.1 3 Este 6 Este 0 -- -- 100
2020-03-17 09:00:00 0.2 0 Calma 2 Sur 0 -- -- 100
2020-03-17 08:00:00 -1.3 0 Calma -- -- 0 -- -- 100
2020-03-17 07:00:00 -1 0 Calma 2 Sur 0 -- -- 99
2020-03-17 06:00:00 -0.5 0 Calma 4 Sudoeste 0 -- -- 99
2020-03-17 05:00:00 0.9 0 Calma 5 Este 0 -- -- 98
2020-03-17 04:00:00 2.3 3 Nordeste 10 Norte 0 -- -- 98
2020-03-17 03:00:00 3.1 2 Norte 9 Nordeste 0 -- -- 98
2020-03-17 02:00:00 3.4 3 Nordeste 18 Norte 0 -- -- 97
2020-03-17 01:00:00 3.7 5 Norte 30 Norte 0.4 -- -- 98
2020-03-17 00:00:00 3.6 9 Norte 40 Nordeste 0.4 -- -- 98
2020-03-16 23:00:00 3.7 14 Norte 39 Noroeste 1 -- -- 97
2020-03-16 22:00:00 3.7 12 Norte 28 Norte 1.4 -- -- 96
2020-03-16 21:00:00 3.3 8 Norte 34 Norte 2.6 -- -- 96
2020-03-16 20:00:00 3.9 8 Norte 26 Norte 0.8 -- -- 95
2020-03-16 19:00:00 4.7 6 Nordeste 30 Norte 0.6 -- -- 92
2020-03-16 18:00:00 4.5 11 Norte 26 Noroeste 0.8 -- -- 94
2020-03-16 17:00:00 4.5 8 Norte 27 Norte 1.4 -- -- 94
2020-03-16 16:00:00 4.2 8 Norte 24 Norte 0.8 -- -- 93
2020-03-16 15:00:00 3.4 6 Norte 31 Norte 0.8 -- -- 92
2020-03-16 14:00:00 5.9 17 Norte 41 Norte 0 -- -- 66
2020-03-16 13:00:00 6.5 16 Norte 44 Norte 0 -- -- 60
2020-03-16 12:00:00 5.8 17 Norte 33 Noroeste 0 -- -- 67
2020-03-16 11:00:00 2.9 12 Norte 30 Norte 0 -- -- 86
2020-03-16 10:00:00 2.2 15 Norte 41 Noroeste 0 -- -- 86
2020-03-16 09:00:00 1.9 16 Norte 32 Norte 0 -- -- 85
2020-03-16 08:00:00 1.2 15 Norte 34 Noroeste 0 -- -- 88
2020-03-16 07:00:00 1.1 15 Noroeste 35 Noroeste 0 -- -- 87
2020-03-16 06:00:00 0.8 12 Noroeste 34 Norte 0 -- -- 90
2020-03-16 05:00:00 1.2 13 Noroeste 26 Noroeste 0 -- -- 87
2020-03-16 04:00:00 1.2 10 Norte 24 Noroeste 0 -- -- 87
2020-03-16 03:00:00 1 9 Noroeste 27 Noroeste 0 -- -- 86
2020-03-16 02:00:00 1.2 12 Noroeste 29 Oeste 0 -- -- 85
2020-03-16 01:00:00 1.3 7 Norte 23 Nordeste 0 -- -- 86
2020-03-16 00:00:00 2 10 Norte 27 Norte 0 -- -- 87
2020-03-15 23:00:00 2.3 9 Norte 34 Noroeste 0 -- -- 83
2020-03-15 22:00:00 3.6 12 Noroeste 31 Noroeste 0 -- -- 80
2020-03-15 21:00:00 4.6 16 Noroeste 41 Norte 0 -- -- 84
2020-03-15 20:00:00 6.5 15 Noroeste 42 Noroeste 0 -- -- 81
2020-03-15 19:00:00 10.7 7 Noroeste 24 Oeste 0 -- -- 55
2020-03-15 18:00:00 11.8 9 Noroeste 26 Noroeste 0 -- -- 55
2020-03-15 17:00:00 14.4 9 Sudoeste 38 Sur 0 -- -- 47
2020-03-15 16:00:00 15.2 15 Sur 35 Sur 0 -- -- 61
2020-03-15 15:00:00 13.8 14 Oeste 37 Sudoeste 0 -- -- 68
2020-03-15 14:00:00 15.7 17 Sudoeste 40 Sudoeste 0 -- -- 63
2020-03-15 13:00:00 15.9 11 Sudoeste 30 Sudoeste 0 -- -- 60
2020-03-15 12:00:00 14.8 12 Sur 30 Sudoeste 0 -- -- 63
2020-03-15 11:00:00 14.4 11 Sudoeste 22 Sudoeste 0 -- -- 56
2020-03-15 10:00:00 12 8 Sudoeste 20 Sudoeste 0 -- -- 69
2020-03-15 09:00:00 3.9 2 Sur 4 Sur 0 -- -- 100
2020-03-15 08:00:00 0.8 3 Sur 6 Sudoeste 0 -- -- 97
2020-03-15 07:00:00 0.6 3 Sur 7 Sudoeste 0 -- -- 97
2020-03-15 06:00:00 0.1 3 Sudoeste 4 Sur 0 -- -- 96
2020-03-15 05:00:00 0 2 Sur 4 Sur 0 -- -- 95
2020-03-15 04:00:00 0 3 Sur 4 Sur 0 -- -- 94
2020-03-15 03:00:00 0.1 3 Sudoeste 4 Sudoeste 0 -- -- 93
2020-03-15 02:00:00 0.5 3 Sur 4 Sur 0 -- -- 91
2020-03-15 01:00:00 0.9 2 Sur 4 Sudoeste 0 -- -- 88
2020-03-15 00:00:00 1.7 3 Sudoeste 4 Sudoeste 0 -- -- 84
2020-03-14 23:00:00 2.7 3 Sur 6 Sur 0 -- -- 80
2020-03-14 22:00:00 4.3 4 Sur 6 Sur 0 -- -- 76
2020-03-14 21:00:00 6.7 4 Sur 7 Sur 0 -- -- 70
2020-03-14 20:00:00 11.2 5 Sur 8 Norte 0 -- -- 60
2020-03-14 19:00:00 17.9 5 Norte 12 Norte 0 -- -- 37
2020-03-14 18:00:00 18.7 6 Norte 13 Noroeste 0 -- -- 34
2020-03-14 17:00:00 19.7 3 Nordeste 15 Norte 0 -- -- 34
2020-03-14 16:00:00 19.3 3 Nordeste 11 Nordeste 0 -- -- 37
2020-03-14 15:00:00 18.4 5 Norte 15 Noroeste 0 -- -- 41
2020-03-14 14:00:00 17.3 9 Noroeste 17 Norte 0 -- -- 48
2020-03-14 13:00:00 16.3 4 Norte 12 Norte 0 -- -- 44
2020-03-14 12:00:00 15 8 Norte 15 Norte 0 -- -- 49
2020-03-14 11:00:00 12.8 4 Este 8 Este 0 -- -- 65
2020-03-14 10:00:00 8.7 0 Calma 5 Norte 0 -- -- 92
2020-03-14 09:00:00 3.1 3 Sur 5 Sudoeste 0 -- -- 100
2020-03-14 08:00:00 -0.3 2 Sur 4 Sudoeste 0 -- -- 99
2020-03-14 07:00:00 0.5 3 Sur 6 Sur 0 -- -- 100
2020-03-14 06:00:00 1.2 2 Sur 6 Sur 0 -- -- 99
2020-03-14 05:00:00 1.5 2 Sur 6 Sudoeste 0 -- -- 99
2020-03-14 04:00:00 1.6 3 Sur 4 Sur 0 -- -- 99
2020-03-14 03:00:00 1.5 2 Sudoeste 4 Sur 0 -- -- 99
2020-03-14 02:00:00 2.2 2 Sur 4 Sur 0 -- -- 97
2020-03-14 01:00:00 2.8 3 Sur 4 Sudoeste 0 -- -- 97
2020-03-14 00:00:00 3.3 2 Sur 4 Sudoeste 0 -- -- 95
2020-03-13 23:00:00 4.6 2 Sur 5 Sudoeste 0 -- -- 92
2020-03-13 22:00:00 5.8 3 Sur 5 Sur 0 -- -- 91
2020-03-13 21:00:00 8.5 3 Sur 5 Sur 0 -- -- 87
2020-03-13 20:00:00 12.2 4 Norte 12 Norte 0 -- -- 78
2020-03-13 19:00:00 14.2 8 Norte 18 Norte 0 -- -- 72
2020-03-13 18:00:00 14.6 6 Norte 21 Noroeste 0 -- -- 71
2020-03-13 17:00:00 14.5 11 Norte 20 Norte 0 -- -- 70
2020-03-13 16:00:00 14.4 9 Norte 22 Noroeste 0 -- -- 71
2020-03-13 15:00:00 14.5 8 Norte 19 Norte 0 -- -- 70
2020-03-13 14:00:00 13.7 9 Norte 20 Noroeste 0 -- -- 74
2020-03-13 13:00:00 11 4 Norte 16 Norte 0 -- -- 86
2020-03-13 12:00:00 9.2 4 Norte 14 Norte 0 -- -- 92
2020-03-13 11:00:00 8.1 0 Calma 10 Norte 0 -- -- 100
2020-03-13 10:00:00 7.3 4 Norte 12 Norte 0 -- -- 100
2020-03-13 09:00:00 7.1 4 Norte 12 Norte 0 -- -- 100
2020-03-13 08:00:00 7.3 5 Norte 12 Norte 0 -- -- 100
2020-03-13 07:00:00 7.9 5 Norte 12 Norte 0 -- -- 100
2020-03-13 06:00:00 6.2 0 Calma 3 Noroeste 0 -- -- 100
2020-03-13 05:00:00 4 0 Calma 4 Sur 0 -- -- 98
2020-03-13 04:00:00 4.3 2 Sur 5 Sur 0 -- -- 97
2020-03-13 03:00:00 4.7 0 Calma 4 Sur 0 -- -- 96
2020-03-13 02:00:00 5.6 2 Sur 3 Sur 0 -- -- 94
2020-03-13 01:00:00 6.7 2 Sur 3 Sur 0 -- -- 93
2020-03-13 00:00:00 7.7 0 Calma 4 Sur 0 -- -- 92
2020-03-12 23:00:00 8.5 0 Calma 3 Sur 0 -- -- 88
2020-03-12 22:00:00 9.6 2 Sur 6 Norte 0 -- -- 84
2020-03-12 21:00:00 11 3 Sur 5 Sudoeste 0 -- -- 80
2020-03-12 20:00:00 13.8 2 Sur 6 Sudoeste 0 -- -- 71
2020-03-12 19:00:00 17.7 6 Sudoeste 13 Sur 0 -- -- 58
2020-03-12 18:00:00 18.7 6 Sudoeste 16 Sudoeste 0 -- -- 53
2020-03-12 17:00:00 19.8 6 Sudoeste 15 Sudoeste 0 -- -- 43
2020-03-12 16:00:00 20.3 6 Sudoeste 18 Oeste 0 -- -- 42
2020-03-12 15:00:00 20.2 5 Sudoeste 17 Sudoeste 0 -- -- 46
2020-03-12 14:00:00 19.2 9 Sudoeste 18 Sudoeste 0 -- -- 48
2020-03-12 13:00:00 19.4 9 Sudoeste 24 Sur 0 -- -- 50
2020-03-12 12:00:00 18.6 14 Sur 25 Sudoeste 0 -- -- 52
2020-03-12 11:00:00 18.2 10 Sur 17 Sur 0 -- -- 57
2020-03-12 10:00:00 13 0 Calma 2 Noroeste 0 -- -- 82
2020-03-12 09:00:00 9.3 0 Calma 4 Sur 0 -- -- 93
2020-03-12 08:00:00 5.9 3 Sur 6 Sur 0 -- -- 95
2020-03-12 07:00:00 6.2 3 Sur 5 Sur 0 -- -- 91
2020-03-12 06:00:00 7.2 0 Calma 6 Sur 0 -- -- 91
2020-03-12 05:00:00 7.6 2 Sur 8 Sur 0 -- -- 89
2020-03-12 04:00:00 7.6 0 Calma 4 Sudoeste 0 -- -- 89
2020-03-12 03:00:00 8.1 0 Calma 5 Sur 0 -- -- 86
2020-03-12 02:00:00 8.9 2 Sur 4 Sudoeste 0 -- -- 85
2020-03-12 01:00:00 8.8 3 Sur 5 Sudoeste 0 -- -- 85
2020-03-12 00:00:00 8.5 3 Sudoeste 5 Sudoeste 0 -- -- 82
2020-03-11 23:00:00 9.2 3 Sur 5 Sur 0 -- -- 78
2020-03-11 22:00:00 10.6 3 Sur 5 Sur 0 -- -- 78
2020-03-11 21:00:00 12.9 2 Sur 4 Sur 0 -- -- 73
2020-03-11 20:00:00 14.5 3 Sur 4 Sudoeste 0 -- -- 73
2020-03-11 19:00:00 17.4 3 Sur 8 Sur 0 -- -- 67
2020-03-11 18:00:00 19.2 0 Calma 8 Sur 0 -- -- 55
2020-03-11 17:00:00 20.4 4 Sudoeste 17 Sur 0 -- -- 48
2020-03-11 16:00:00 22.3 13 Sur 23 Sur 0 -- -- 40
2020-03-11 15:00:00 23.1 8 Sudoeste 20 Sur 0 -- -- 41
2020-03-11 14:00:00 22.5 8 Sudoeste 20 Oeste 0 -- -- 40
2020-03-11 13:00:00 21.8 6 Sudoeste 15 Oeste 0 -- -- 39
2020-03-11 12:00:00 21 8 Sudoeste 15 Sudoeste 0 -- -- 42
2020-03-11 11:00:00 19.6 6 Sudoeste 13 Sur 0 -- -- 43
2020-03-11 10:00:00 12.8 0 Calma 4 Sur 0 -- -- 88
2020-03-11 09:00:00 5.5 0 Calma 4 Sudoeste 0 -- -- 100
2020-03-11 08:00:00 2.9 2 Sur 4 Sur 0 -- -- 100
2020-03-11 07:00:00 2.5 3 Sudoeste 4 Sudoeste 0 -- -- 99
2020-03-11 06:00:00 2.9 2 Sur 4 Sudoeste 0 -- -- 99
2020-03-11 05:00:00 3.2 2 Sur 4 Sur 0 -- -- 98
2020-03-11 04:00:00 3.4 2 Sur 4 Sur 0 -- -- 97
2020-03-11 03:00:00 3.9 2 Sur 4 Sudoeste 0 -- -- 95
2020-03-11 02:00:00 4.5 3 Sudoeste 4 Sur 0 -- -- 95
2020-03-11 01:00:00 5 3 Sur 4 Sudoeste 0 -- -- 93
2020-03-11 00:00:00 5.8 3 Sudoeste 4 Sudoeste 0 -- -- 91
2020-03-10 23:00:00 6.7 3 Sudoeste 4 Sudoeste 0 -- -- 88
2020-03-10 22:00:00 8.2 2 Sur 5 Sur 0 -- -- 84
2020-03-10 21:00:00 10 3 Sur 6 Sur 0 -- -- 80
2020-03-10 20:00:00 14.5 4 Sur 11 Sur 0 -- -- 66
2020-03-10 19:00:00 18.3 4 Sudoeste 15 Sudoeste 0 -- -- 55
2020-03-10 18:00:00 19.9 7 Sur 17 Sur 0 -- -- 50
2020-03-10 17:00:00 21 8 Sudoeste 19 Sudoeste 0 -- -- 46
2020-03-10 16:00:00 22.1 9 Sur 17 Sudoeste 0 -- -- 42
2020-03-10 15:00:00 21.5 7 Sudoeste 16 Sudoeste 0 -- -- 40
2020-03-10 14:00:00 21.3 9 Sudoeste 19 Sudoeste 0 -- -- 44
2020-03-10 13:00:00 20.5 8 Sudoeste 19 Sudoeste 0 -- -- 49
2020-03-10 12:00:00 18.5 0 Calma 8 Norte 0 -- -- 55
2020-03-10 11:00:00 14 3 Norte 8 Norte 0 -- -- 66
2020-03-10 10:00:00 8.4 0 Calma 3 Sur 0 -- -- 96
2020-03-10 09:00:00 2.9 0 Calma 3 Sur 0 -- -- 100
2020-03-10 08:00:00 1.2 0 Calma 4 Sudoeste 0 -- -- 99
2020-03-10 07:00:00 0.9 2 Sudoeste 4 Sudoeste 0 -- -- 97
2020-03-10 06:00:00 1.1 0 Calma 4 Sur 0 -- -- 98
2020-03-10 05:00:00 1 3 Sudoeste 4 Sur 0 -- -- 97
2020-03-10 04:00:00 1.2 3 Sudoeste 4 Sur 0 -- -- 95
2020-03-10 03:00:00 1.5 2 Sur 3 Sur 0 -- -- 95
2020-03-10 02:00:00 1.5 3 Sur 4 Sur 0 -- -- 94
2020-03-10 01:00:00 2 2 Sudoeste 5 Sur 0 -- -- 91
2020-03-10 00:00:00 2.6 3 Sudoeste 6 Sudoeste 0 -- -- 86
2020-03-09 23:00:00 3.4 0 Calma 3 Sur 0 -- -- 81
2020-03-09 22:00:00 4.7 0 Calma 6 Sudeste 0 -- -- 76
2020-03-09 21:00:00 6.9 0 Calma 6 Sudeste 0 -- -- 65
2020-03-09 20:00:00 10.9 2 Nordeste 17 Noroeste 0 -- -- 45
2020-03-09 19:00:00 12.3 8 Norte 25 Norte 0 -- -- 40
2020-03-09 18:00:00 13.9 13 Norte 28 Norte 0 -- -- 36
2020-03-09 17:00:00 14.8 12 Norte 29 Noroeste 0 -- -- 31
2020-03-09 16:00:00 14.8 15 Norte 31 Norte 0 -- -- 33
2020-03-09 15:00:00 14 16 Norte 31 Norte 0 -- -- 33
2020-03-09 14:00:00 12.9 15 Norte 32 Norte 0 -- -- 34
2020-03-09 13:00:00 11.3 9 Norte 29 Noroeste 0 -- -- 53
2020-03-09 12:00:00 9.7 11 Norte 26 Norte 0 -- -- 71
2020-03-09 11:00:00 7.7 9 Norte 24 Nordeste 0 -- -- 75
2020-03-09 10:00:00 5.9 9 Norte 17 Norte 0 -- -- 88
2020-03-09 09:00:00 3.2 3 Nordeste 8 Noroeste 0 -- -- 100
2020-03-09 08:00:00 1.5 2 Noroeste 6 Noroeste 0 -- -- 100
2020-03-09 07:00:00 2.5 2 Norte 4 Noroeste 0 -- -- 100
2020-03-09 06:00:00 0.9 0 Calma 3 Sur 0 -- -- 100
2020-03-09 05:00:00 0.3 0 Calma 3 Sur 0 -- -- 98
2020-03-09 04:00:00 1.3 0 Calma 3 Sur 0 -- -- 95
2020-03-09 03:00:00 3.3 0 Calma 4 Norte 0 -- -- 92
2020-03-09 02:00:00 6.1 0 Calma 13 Norte 0 -- -- 91
2020-03-09 01:00:00 7.1 3 Nordeste 13 Norte 0 -- -- 89
2020-03-09 00:00:00 7.5 5 Norte 15 Norte 0 -- -- 88
2020-03-08 23:00:00 8 7 Noroeste 17 Noroeste 0 -- -- 88
2020-03-08 22:00:00 8 3 Norte 12 Noroeste 0 -- -- 90
2020-03-08 21:00:00 9.1 6 Noroeste 18 Noroeste 0 -- -- 90
2020-03-08 20:00:00 10.1 6 Noroeste 13 Noroeste 0 -- -- 87
2020-03-08 19:00:00 10.6 6 Norte 22 Norte 0 -- -- 84
2020-03-08 18:00:00 11.8 12 Noroeste 26 Oeste 0 -- -- 79
2020-03-08 17:00:00 12 10 Noroeste 18 Norte 0 -- -- 75
2020-03-08 16:00:00 10.8 3 Norte 13 Noroeste 0 -- -- 76
2020-03-08 15:00:00 10 6 Norte 15 Noroeste 0 -- -- 79
2020-03-08 14:00:00 10.6 11 Noroeste 21 Noroeste 0 -- -- 67
2020-03-08 13:00:00 10.4 6 Norte 12 Norte 0 -- -- 65
2020-03-08 12:00:00 8.4 4 Norte 9 Norte 0 -- -- 81
2020-03-08 11:00:00 5.1 0 Calma 8 Norte 0 -- -- 100
2020-03-08 10:00:00 2.3 0 Calma 2 Sur 0 -- -- 100
2020-03-08 09:00:00 -1.7 2 Sur 3 Sur 0 -- -- 100
2020-03-08 08:00:00 -3.8 2 Sur 4 Sur 0 -- -- 97
2020-03-08 07:00:00 -3.3 0 Calma 4 Sudeste 0 -- -- 98
2020-03-08 06:00:00 -2.6 0 Calma 3 Sur 0 -- -- 98
2020-03-08 05:00:00 -2.4 0 Calma 5 Sudoeste 0 -- -- 98
2020-03-08 04:00:00 -2.1 0 Calma 4 Sudoeste 0 -- -- 97
2020-03-08 03:00:00 -1.4 0 Calma 6 Sur 0 -- -- 98
2020-03-08 02:00:00 -1.4 2 Sur 4 Sur 0 -- -- 96
2020-03-08 01:00:00 -0.9 0 Calma 5 Sudoeste 0 -- -- 94
2020-03-08 00:00:00 -0.2 0 Calma 5 Sur 0 -- -- 93
2020-03-07 23:00:00 0.9 2 Sur 4 Sudoeste 0 -- -- 90
2020-03-07 22:00:00 1.9 2 Sur 5 Sur 0 -- -- 88
2020-03-07 21:00:00 3.8 3 Sur 6 Sur 0 -- -- 83
2020-03-07 20:00:00 7.3 4 Sur 6 Sur 0 -- -- 71
2020-03-07 19:00:00 13.1 4 Norte 14 Norte 0 -- -- 49
2020-03-07 18:00:00 14.3 7 Noroeste 17 Noroeste 0 -- -- 43
2020-03-07 17:00:00 15.2 8 Noroeste 19 Noroeste 0 -- -- 42
2020-03-07 16:00:00 14.9 5 Noroeste 17 Norte 0 -- -- 45
2020-03-07 15:00:00 13.8 6 Este 13 Sudeste 0 -- -- 49
2020-03-07 14:00:00 12.7 4 Nordeste 12 Este 0 -- -- 55
2020-03-07 13:00:00 10.9 5 Norte 13 Norte 0 -- -- 66
2020-03-07 12:00:00 9.4 6 Norte 15 Norte 0 -- -- 70
2020-03-07 11:00:00 7.9 3 Nordeste 9 Este 0 -- -- 76
2020-03-07 10:00:00 4.3 2 Sur 4 Este 0 -- -- 100
2020-03-07 09:00:00 -0.5 0 Calma 3 Sur 0 -- -- 100
2020-03-07 08:00:00 -1.5 0 Calma 2 Sudeste 0 -- -- 98
2020-03-07 07:00:00 -1.4 0 Calma 2 Sudeste 0 -- -- 98
2020-03-07 06:00:00 -1.5 0 Calma 2 Sur 0 -- -- 95
2020-03-07 05:00:00 -1 0 Calma 3 Sur 0 -- -- 94
2020-03-07 04:00:00 -0.3 0 Calma 4 Sur 0 -- -- 93
2020-03-07 03:00:00 1.3 0 Calma 4 Nordeste 0 -- -- 86
2020-03-07 02:00:00 2.9 3 Noroeste 12 Noroeste 0 -- -- 81
2020-03-07 01:00:00 3.3 0 Calma 13 Norte 0 -- -- 77
2020-03-07 00:00:00 3.4 5 Norte 11 Norte 0 -- -- 78
2020-03-06 23:00:00 4.1 0 Calma 12 Noroeste 0 -- -- 80
2020-03-06 22:00:00 5 5 Norte 15 Norte 0 -- -- 75
2020-03-06 21:00:00 5.8 8 Noroeste 22 Norte 0 -- -- 69
2020-03-06 20:00:00 6.9 14 Norte 37 Norte 0 -- -- 62
2020-03-06 19:00:00 8 19 Noroeste 40 Noroeste 0 -- -- 59
2020-03-06 18:00:00 8.9 16 Norte 40 Norte 0 -- -- 54
2020-03-06 17:00:00 9.5 17 Noroeste 43 Noroeste 0 -- -- 53
2020-03-06 16:00:00 9.5 19 Noroeste 43 Noroeste 0 -- -- 54
2020-03-06 15:00:00 9.4 17 Noroeste 47 Noroeste 0 -- -- 56
2020-03-06 14:00:00 8.8 19 Norte 39 Norte 0 -- -- 61
2020-03-06 13:00:00 8.1 24 Noroeste 48 Norte 0 -- -- 64
2020-03-06 12:00:00 7.3 21 Norte 50 Noroeste 0 -- -- 68
2020-03-06 11:00:00 6.2 21 Noroeste 54 Noroeste 0 -- -- 76
2020-03-06 10:00:00 5.4 22 Noroeste 39 Noroeste 0 -- -- 78
2020-03-06 09:00:00 4.2 12 Norte 28 Norte 0 -- -- 82
2020-03-06 08:00:00 3.3 12 Norte 27 Norte 0 -- -- 83
2020-03-06 07:00:00 3.5 13 Noroeste 38 Noroeste 0 -- -- 81
2020-03-06 06:00:00 5 10 Noroeste 27 Noroeste 0 -- -- 90
2020-03-06 05:00:00 5.3 12 Noroeste 40 Noroeste 0 -- -- 88
2020-03-06 04:00:00 6.3 14 Noroeste 26 Noroeste 0 -- -- 90
2020-03-06 03:00:00 6 9 Oeste 23 Oeste 0 -- -- 87
2020-03-06 02:00:00 5.3 5 Oeste 22 Oeste 0 -- -- 91
2020-03-06 01:00:00 5 8 Oeste 25 Oeste 0 -- -- 87
2020-03-06 00:00:00 4.8 5 Oeste 25 Oeste 0 -- -- 84
2020-03-05 23:00:00 5 10 Oeste 21 Oeste 0 -- -- 87
2020-03-05 22:00:00 5.4 9 Noroeste 23 Noroeste 0 -- -- 82
2020-03-05 21:00:00 5.8 12 Noroeste 35 Noroeste 0 -- -- 80
2020-03-05 20:00:00 6.5 13 Noroeste 31 Norte 0 -- -- 75
2020-03-05 19:00:00 8.1 15 Noroeste 34 Oeste 0 -- -- 76
2020-03-05 18:00:00 9.2 15 Noroeste 31 Oeste 0 -- -- 67
2020-03-05 17:00:00 9.3 16 Oeste 42 Oeste 0 -- -- 68
2020-03-05 16:00:00 11.3 13 Noroeste 35 Oeste 0 -- -- 66
2020-03-05 15:00:00 10.6 13 Noroeste 37 Noroeste 0 -- -- 69
2020-03-05 14:00:00 10 21 Oeste 34 Oeste 0 -- -- 72
2020-03-05 13:00:00 10.2 22 Oeste 38 Noroeste 0 -- -- 66
2020-03-05 12:00:00 9.7 17 Noroeste 38 Oeste 0 -- -- 66
2020-03-05 11:00:00 8.8 14 Oeste 39 Oeste 0 -- -- 71
2020-03-05 10:00:00 7.7 6 Noroeste 27 Oeste 0 -- -- 88
2020-03-05 09:00:00 7.9 18 Noroeste 35 Oeste 1 -- -- 82
2020-03-05 08:00:00 9.2 13 Sudoeste 46 Sudoeste 1 -- -- 98
2020-03-05 07:00:00 9.1 24 Sudoeste 49 Sudoeste 0.6 -- -- 98
2020-03-05 06:00:00 9.1 22 Sudoeste 46 Sudoeste 0.2 -- -- 100
2020-03-05 05:00:00 9.2 16 Sudoeste 44 Sudoeste 0 -- -- 100
2020-03-05 04:00:00 9.5 21 Sudoeste 42 Sudoeste 0 -- -- 96
2020-03-05 03:00:00 9.9 9 Sudoeste 30 Sur 0 -- -- 94
2020-03-05 02:00:00 10.1 9 Sudoeste 19 Sur 0 -- -- 91
2020-03-05 01:00:00 10.4 5 Sudoeste 19 Sudoeste 0 -- -- 93
2020-03-05 00:00:00 10.4 10 Sudoeste 20 Sudoeste 0 -- -- 98
2020-03-04 23:00:00 10.7 5 Sudoeste 23 Sudoeste 0 -- -- 95
2020-03-04 22:00:00 10.9 10 Sudoeste 21 Sudoeste 0 -- -- 93
2020-03-04 21:00:00 11.2 6 Sudoeste 13 Sudoeste 0 -- -- 90
2020-03-04 20:00:00 11.6 4 Sur 10 Sudoeste 0 -- -- 89
2020-03-04 19:00:00 12.4 3 Sudoeste 13 Oeste 0 -- -- 84
2020-03-04 18:00:00 13 5 Oeste 17 Noroeste 0 -- -- 74
2020-03-04 17:00:00 12.5 4 Oeste 14 Sudoeste 0 -- -- 83
2020-03-04 16:00:00 12.5 10 Sudoeste 20 Sur 0 -- -- 81
2020-03-04 15:00:00 13.4 7 Oeste 20 Oeste 0 -- -- 69
2020-03-04 14:00:00 12.5 6 Oeste 19 Norte 0 -- -- 76
2020-03-04 13:00:00 11.2 6 Noroeste 18 Oeste 0 -- -- 81
2020-03-04 12:00:00 11.1 7 Noroeste 18 Norte 0 -- -- 84
2020-03-04 11:00:00 9.9 2 Oeste 13 Oeste 0 -- -- 90
2020-03-04 10:00:00 9.7 3 Sudoeste 11 Sudoeste 0 -- -- 91
2020-03-04 09:00:00 8.7 2 Sudoeste 8 Sudoeste 0 -- -- 95
2020-03-04 08:00:00 7.9 4 Sudoeste 9 Sudoeste 0 -- -- 98
2020-03-04 07:00:00 6 4 Sur 7 Sur 0 -- -- 98
2020-03-04 06:00:00 7.7 0 Calma 8 Oeste 0 -- -- 92
2020-03-04 05:00:00 9.1 0 Calma 10 Oeste 0 -- -- 95
2020-03-04 04:00:00 9 4 Sudoeste 8 Sudoeste 0 -- -- 94
2020-03-04 03:00:00 10.1 3 Sudoeste 11 Sudoeste 0 -- -- 94
2020-03-04 02:00:00 10.1 4 Sudoeste 14 Sudoeste 0 -- -- 96
2020-03-04 01:00:00 10.2 9 Sudoeste 19 Sudoeste 0 -- -- 97
2020-03-04 00:00:00 10.3 5 Sudoeste 12 Sudoeste 0 -- -- 94